createdAt,value
2018-04-10T00:01:41.707Z,19.90
2018-04-10T00:04:08.343Z,22.87
2018-04-10T00:06:34.990Z,22.95
2018-04-10T00:09:01.631Z,24.55
2018-04-10T00:11:28.283Z,22.10
2018-04-10T00:13:54.914Z,22.67
2018-04-10T00:16:21.626Z,19.00
2018-04-10T00:18:48.255Z,20.12
2018-04-10T00:21:14.893Z,20.70
2018-04-10T00:23:41.530Z,20.67
2018-04-10T00:26:08.173Z,19.15
2018-04-10T00:28:34.822Z,19.67
2018-04-10T00:31:01.469Z,18.05
2018-04-10T00:33:28.207Z,15.65
2018-04-10T00:35:54.862Z,16.35
2018-04-10T00:38:21.593Z,15.07
2018-04-10T00:40:48.319Z,15.75
2018-04-10T00:43:15.071Z,16.45
2018-04-10T00:45:41.725Z,14.73
2018-04-10T00:48:08.364Z,15.00
2018-04-10T00:50:35.008Z,14.77
2018-04-10T00:53:07.665Z,14.52
2018-04-10T00:55:34.320Z,13.75
2018-04-10T00:58:00.951Z,14.55
2018-04-10T01:00:27.679Z,13.05
2018-04-10T01:02:54.339Z,15.82
2018-04-10T01:05:20.993Z,13.82
2018-04-10T01:07:47.630Z,17.37
2018-04-10T01:10:14.364Z,14.15
2018-04-10T01:12:40.990Z,14.90
2018-04-10T01:15:07.763Z,14.48
2018-04-10T01:17:34.400Z,16.15
2018-04-10T01:20:01.093Z,16.80
2018-04-10T01:22:27.744Z,15.50
2018-04-10T01:24:54.370Z,14.23
2018-04-10T01:27:21.015Z,15.20
2018-04-10T01:29:47.646Z,15.75
2018-04-10T01:32:14.297Z,14.65
2018-04-10T01:34:40.934Z,14.30
2018-04-10T01:37:07.671Z,13.45
2018-04-10T01:39:34.414Z,12.88
2018-04-10T01:42:01.154Z,14.05
2018-04-10T01:44:27.777Z,13.62
2018-04-10T01:46:54.421Z,15.40
2018-04-10T01:49:21.054Z,12.80
2018-04-10T01:51:47.734Z,15.07
2018-04-10T01:54:14.379Z,15.50
2018-04-10T01:56:41.094Z,14.20
2018-04-10T01:59:07.727Z,14.87
2018-04-10T02:01:34.397Z,14.95
2018-04-10T02:04:01.022Z,14.60
2018-04-10T02:06:27.672Z,13.38
2018-04-10T02:08:54.297Z,13.75
2018-04-10T02:24:49.459Z,15.48
2018-04-10T02:27:16.109Z,15.50
2018-04-10T02:29:42.747Z,15.35
2018-04-10T02:32:09.374Z,15.80
2018-04-10T02:34:36.018Z,16.42
2018-04-10T02:37:02.805Z,16.62
2018-04-10T02:39:29.454Z,17.37
2018-04-10T02:41:56.073Z,17.08
2018-04-10T02:44:22.725Z,17.60
2018-04-10T02:46:49.354Z,16.35
2018-04-10T02:49:16.011Z,15.32
2018-04-10T02:51:42.648Z,16.00
2018-04-10T02:54:09.312Z,15.75
2018-04-10T02:56:35.944Z,15.90
2018-04-10T02:59:02.599Z,17.02
2018-04-10T03:01:29.239Z,15.52
2018-04-10T03:03:55.878Z,17.20
2018-04-10T03:06:22.511Z,15.55
2018-04-10T03:08:49.229Z,15.60
2018-04-10T03:11:15.870Z,17.05
2018-04-10T03:13:42.505Z,15.98
2018-04-10T03:16:09.247Z,16.42
2018-04-10T03:18:35.875Z,16.50
2018-04-10T03:21:02.523Z,16.70
2018-04-10T03:23:29.155Z,18.35
2018-04-10T03:25:55.807Z,16.90
2018-04-10T03:28:22.439Z,15.55
2018-04-10T03:30:49.182Z,15.27
2018-04-10T03:33:15.807Z,16.23
2018-04-10T03:35:42.459Z,16.00
2018-04-10T03:38:09.088Z,15.23
2018-04-10T03:40:35.739Z,15.10
2018-04-10T03:43:02.373Z,16.15
2018-04-10T03:45:29.120Z,17.30
2018-04-10T03:47:55.784Z,15.27
2018-04-10T03:50:22.407Z,16.52
2018-04-10T03:52:49.062Z,16.25
2018-04-10T03:55:15.690Z,18.30
2018-04-10T03:57:42.340Z,17.67
2018-04-10T04:00:09.057Z,18.02
2018-04-10T04:02:35.697Z,20.55
2018-04-10T04:05:02.326Z,17.60
2018-04-10T04:07:29.076Z,16.37
2018-04-10T04:09:55.710Z,16.15
2018-04-10T04:12:22.360Z,16.60
2018-04-10T04:14:48.994Z,16.77
2018-04-10T04:17:21.494Z,15.32
2018-04-10T04:19:54.227Z,17.30
2018-04-10T04:22:24.550Z,17.58
2018-04-10T04:24:51.178Z,16.92
2018-04-10T04:27:17.817Z,17.35
2018-04-10T04:29:45.368Z,17.65
2018-04-10T04:32:11.993Z,17.95
2018-04-10T04:34:38.670Z,16.10
2018-04-10T04:37:05.405Z,17.25
2018-04-10T04:39:32.054Z,17.73
2018-04-10T04:41:58.682Z,18.33
2018-04-10T04:44:25.335Z,18.45
2018-04-10T04:46:51.967Z,17.77
2018-04-10T04:49:18.617Z,16.65
2018-04-10T04:51:45.350Z,17.10
2018-04-10T04:54:11.993Z,16.05
2018-04-10T04:56:38.732Z,16.67
2018-04-10T04:59:05.377Z,18.10
2018-04-10T05:01:32.115Z,19.42
2018-04-10T05:03:58.750Z,18.00
2018-04-10T05:06:25.408Z,18.83
2018-04-10T05:08:52.044Z,18.27
2018-04-10T05:11:18.756Z,15.68
2018-04-10T05:13:45.386Z,16.67
2018-04-10T05:16:12.048Z,19.42
2018-04-10T05:18:38.787Z,17.83
2018-04-10T05:21:05.435Z,18.73
2018-04-10T05:23:32.071Z,20.33
2018-04-10T05:25:58.722Z,19.37
2018-04-10T05:28:25.352Z,16.37
2018-04-10T05:30:52.078Z,19.35
2018-04-10T05:33:18.706Z,19.15
2018-04-10T05:35:45.473Z,17.50
2018-04-10T05:38:12.230Z,17.50
2018-04-10T05:40:38.874Z,17.83
2018-04-10T05:43:05.511Z,17.02
2018-04-10T05:45:32.222Z,16.52
2018-04-10T05:47:58.849Z,16.00
2018-04-10T05:50:25.550Z,17.02
2018-04-10T05:52:52.188Z,17.33
2018-04-10T05:55:18.823Z,18.15
2018-04-10T05:57:45.547Z,18.62
2018-04-10T06:00:12.182Z,18.98
2018-04-10T06:02:38.907Z,17.70
2018-04-10T06:05:05.566Z,19.85
2018-04-10T06:07:32.213Z,18.80
2018-04-10T06:09:58.846Z,18.85
2018-04-10T06:12:25.490Z,19.50
2018-04-10T06:14:52.125Z,18.17
2018-04-10T06:17:18.770Z,19.80
2018-04-10T06:19:45.407Z,18.85
2018-04-10T06:22:12.051Z,19.33
2018-04-10T06:24:38.751Z,19.58
2018-04-10T06:27:05.408Z,19.17
2018-04-10T06:29:32.135Z,18.33
2018-04-10T06:31:58.786Z,21.90
2018-04-10T06:34:25.423Z,22.83
2018-04-10T06:36:52.058Z,25.12
2018-04-10T06:39:18.707Z,23.23
2018-04-10T06:41:45.333Z,20.92
2018-04-10T06:44:12.081Z,20.77
2018-04-10T06:46:38.714Z,21.62
2018-04-10T06:49:05.458Z,21.65
2018-04-10T06:51:32.108Z,20.00
2018-04-10T06:53:58.841Z,19.12
2018-04-10T06:56:25.470Z,21.08
2018-04-10T06:58:52.119Z,24.12
2018-04-10T07:01:18.750Z,23.17
2018-04-10T07:03:45.407Z,23.12
2018-04-10T07:06:12.140Z,25.62
2018-04-10T07:08:38.874Z,23.67
2018-04-10T07:11:05.617Z,24.63
2018-04-10T07:13:32.359Z,23.90
2018-04-10T07:15:59.001Z,24.02
2018-04-10T07:18:25.625Z,23.45
2018-04-10T07:20:52.277Z,22.23
2018-04-10T07:23:18.911Z,22.70
2018-04-10T07:25:45.576Z,23.62
2018-04-10T07:28:12.203Z,24.00
2018-04-10T07:30:38.855Z,24.33
2018-04-10T07:33:05.478Z,24.70
2018-04-10T07:35:32.136Z,23.50
2018-04-10T07:37:58.775Z,24.60
2018-04-10T07:40:25.428Z,23.15
2018-04-10T07:42:52.049Z,22.95
2018-04-10T07:45:18.766Z,23.70
2018-04-10T07:47:45.416Z,23.05
2018-04-10T07:50:12.055Z,25.67
2018-04-10T07:52:38.778Z,25.02
2018-04-10T07:55:05.414Z,24.52
2018-04-10T07:57:32.054Z,22.00
2018-04-10T07:59:58.730Z,23.67
2018-04-10T08:02:25.415Z,23.95
2018-04-10T08:04:52.029Z,23.62
2018-04-10T08:07:18.722Z,25.85
2018-04-10T08:09:45.363Z,24.55
2018-04-10T08:12:12.020Z,24.73
2018-04-10T08:14:38.652Z,24.42
2018-04-10T08:17:05.302Z,23.62
2018-04-10T08:19:31.941Z,23.15
2018-04-10T08:21:58.568Z,22.90
2018-04-10T08:24:25.335Z,22.98
2018-04-10T08:26:52.064Z,26.00
2018-04-10T08:29:18.789Z,23.67
2018-04-10T08:31:45.524Z,22.83
2018-04-10T08:34:12.170Z,22.50
2018-04-10T08:36:38.799Z,22.02
2018-04-10T08:39:05.446Z,24.37
2018-04-10T08:41:32.085Z,26.02
2018-04-10T08:43:58.733Z,23.27
2018-04-10T08:46:25.464Z,23.80
2018-04-10T08:48:52.222Z,22.30
2018-04-10T08:51:18.934Z,20.90
2018-04-10T08:53:45.604Z,19.92
2018-04-10T08:56:12.265Z,20.20
2018-04-10T08:58:38.986Z,21.40
2018-04-10T09:01:05.698Z,21.25
2018-04-10T09:03:32.332Z,21.90
2018-04-10T09:05:58.979Z,21.92
2018-04-10T09:08:25.724Z,20.67
2018-04-10T09:10:52.375Z,21.05
2018-04-10T09:13:19.001Z,19.48
2018-04-10T09:15:45.656Z,21.50
2018-04-10T09:18:12.379Z,19.45
2018-04-10T09:20:39.119Z,19.12
2018-04-10T09:23:05.867Z,20.85
2018-04-10T09:25:32.629Z,19.65
2018-04-10T09:27:59.370Z,17.60
2018-04-10T09:30:26.087Z,16.25
2018-04-10T09:32:52.748Z,15.50
2018-04-10T09:35:19.392Z,15.45
2018-04-10T09:37:46.116Z,16.23
2018-04-10T09:40:12.747Z,18.67
2018-04-10T09:42:39.404Z,18.20
2018-04-10T09:45:06.035Z,16.33
2018-04-10T09:47:32.689Z,15.70
2018-04-10T09:49:59.401Z,16.35
2018-04-10T09:52:26.146Z,16.35
2018-04-10T09:54:52.891Z,17.75
2018-04-10T09:57:19.533Z,15.20
2018-04-10T09:59:46.167Z,16.20
2018-04-10T10:02:12.908Z,16.37
2018-04-10T10:04:39.541Z,16.17
2018-04-10T10:07:06.172Z,15.50
2018-04-10T10:09:32.823Z,13.75
2018-04-10T10:11:59.449Z,12.27
2018-04-10T10:14:26.097Z,13.90
2018-04-10T10:16:52.787Z,13.48
2018-04-10T10:19:19.445Z,13.82
2018-04-10T10:21:46.081Z,14.40
2018-04-10T10:24:12.758Z,13.40
2018-04-10T10:26:39.396Z,12.80
2018-04-10T10:29:06.142Z,14.60
2018-04-10T10:31:32.882Z,14.05
2018-04-10T10:33:59.627Z,13.30
2018-04-10T10:36:26.274Z,11.93
2018-04-10T10:38:53.739Z,11.45
2018-04-10T10:41:20.459Z,11.25
2018-04-10T10:43:47.092Z,11.30
2018-04-10T10:46:13.754Z,11.50
2018-04-10T10:48:40.482Z,9.35
2018-04-10T10:51:07.248Z,8.60
2018-04-10T10:53:33.886Z,8.68
2018-04-10T10:56:00.604Z,9.68
2018-04-10T10:58:27.246Z,8.90
2018-04-10T11:00:53.891Z,8.23
2018-04-10T11:03:20.528Z,8.32
2018-04-10T11:05:47.186Z,9.05
2018-04-10T11:08:13.834Z,9.57
2018-04-10T11:10:40.550Z,9.15
2018-04-10T11:13:07.307Z,10.60
2018-04-10T11:15:33.934Z,15.20
2018-04-10T11:18:00.596Z,14.82
2018-04-10T11:20:27.221Z,8.98
2018-04-10T11:22:53.870Z,8.80
2018-04-10T11:25:20.497Z,7.97
2018-04-10T11:27:47.179Z,9.55
2018-04-10T11:30:13.811Z,7.10
2018-04-10T11:32:40.498Z,8.32
2018-04-10T11:35:07.135Z,24.80
2018-04-10T11:37:33.789Z,8.10
2018-04-10T11:40:00.427Z,6.55
2018-04-10T11:42:27.078Z,6.00
2018-04-10T11:44:53.714Z,5.83
2018-04-10T11:47:20.435Z,9.07
2018-04-10T11:49:47.183Z,11.43
2018-04-10T11:52:13.819Z,8.63
2018-04-10T11:54:40.563Z,8.13
2018-04-10T11:57:07.211Z,10.00
2018-04-10T11:59:33.872Z,5.40
2018-04-10T12:02:00.651Z,4.13
2018-04-10T12:04:27.259Z,4.97
2018-04-10T12:06:53.949Z,6.53
2018-04-10T12:09:20.590Z,4.60
2018-04-10T12:11:47.229Z,6.07
2018-04-10T12:14:13.975Z,5.77
2018-04-10T12:16:40.616Z,5.13
2018-04-10T12:19:07.233Z,5.10
2018-04-10T12:21:33.894Z,9.40
2018-04-10T12:24:00.550Z,4.47
2018-04-10T12:26:27.276Z,3.80
2018-04-10T12:28:54.265Z,4.20
2018-04-10T12:31:21.295Z,5.17
2018-04-10T12:33:48.238Z,4.33
2018-04-10T12:36:14.887Z,3.50
2018-04-10T12:38:41.596Z,3.40
2018-04-10T12:41:08.223Z,4.30
2018-04-10T12:43:34.842Z,4.10
2018-04-10T12:46:01.489Z,4.27
2018-04-10T12:48:28.175Z,4.90
2018-04-10T12:50:54.893Z,5.67
2018-04-10T12:53:21.535Z,4.47
2018-04-10T12:55:48.154Z,4.13
2018-04-10T12:58:14.832Z,3.60
2018-04-10T13:00:41.479Z,3.50
2018-04-10T13:03:08.187Z,3.30
2018-04-10T13:05:34.831Z,4.20
2018-04-10T13:08:01.480Z,4.43
2018-04-10T13:10:28.108Z,4.50
2018-04-10T13:12:54.736Z,9.60
2018-04-10T13:15:21.379Z,4.70
2018-04-10T13:17:48.003Z,5.40
2018-04-10T13:20:14.656Z,5.20
2018-04-10T13:22:41.426Z,6.30
2018-04-10T13:25:08.131Z,5.50
2018-04-10T13:27:34.774Z,6.17
2018-04-10T13:30:01.406Z,6.83
2018-04-10T13:32:28.031Z,4.83
2018-04-10T13:34:54.659Z,4.50
2018-04-10T13:37:21.302Z,4.27
2018-04-10T13:39:47.930Z,10.60
2018-04-10T13:42:14.611Z,7.20
2018-04-10T13:44:41.255Z,8.20
2018-04-10T13:47:07.999Z,5.77
2018-04-10T13:49:34.733Z,5.10
2018-04-10T13:52:01.384Z,15.80
2018-04-10T13:54:28.019Z,5.57
2018-04-10T13:56:54.781Z,9.90
2018-04-10T13:59:21.443Z,10.70
2018-04-10T14:01:48.057Z,5.30
2018-04-10T14:04:14.697Z,7.90
2018-04-10T14:06:41.413Z,9.43
2018-04-10T14:09:08.150Z,5.17
2018-04-10T14:11:34.795Z,3.63
2018-04-10T14:14:01.444Z,15.47
2018-04-10T14:16:28.198Z,6.80
2018-04-10T14:18:54.839Z,19.03
2018-04-10T14:21:21.595Z,4.07
2018-04-10T14:23:48.266Z,5.70
2018-04-10T14:26:14.894Z,10.27
2018-04-10T14:28:41.526Z,5.00
2018-04-10T14:31:08.156Z,5.17
2018-04-10T14:33:34.791Z,5.10
2018-04-10T14:36:01.506Z,6.13
2018-04-10T14:38:28.143Z,4.80
2018-04-10T14:40:54.892Z,6.07
2018-04-10T14:43:21.533Z,5.40
2018-04-10T14:45:48.171Z,5.20
2018-04-10T14:48:14.840Z,5.57
2018-04-10T14:50:41.482Z,6.03
2018-04-10T14:53:08.110Z,6.10
2018-04-10T14:55:34.747Z,5.18
2018-04-10T14:58:01.392Z,4.80
2018-04-10T15:00:28.032Z,4.87
2018-04-10T15:02:54.664Z,4.55
2018-04-10T15:05:21.321Z,6.70
2018-04-10T15:07:47.955Z,7.85
2018-04-10T15:10:14.644Z,7.25
2018-04-10T15:12:41.292Z,7.85
2018-04-10T15:15:07.926Z,8.00
2018-04-10T15:17:34.559Z,7.93
2018-04-10T15:20:01.204Z,8.40
2018-04-10T15:22:27.831Z,7.82
2018-04-10T15:24:54.454Z,8.35
2018-04-10T15:27:21.160Z,7.03
2018-04-10T15:29:47.786Z,8.73
2018-04-10T15:32:14.403Z,7.22
2018-04-10T15:34:41.043Z,8.52
2018-04-10T15:37:07.776Z,7.20
2018-04-10T15:39:34.406Z,6.90
2018-04-10T15:42:01.059Z,6.40
2018-04-10T15:44:27.689Z,6.62
2018-04-10T15:46:54.340Z,5.97
2018-04-10T15:49:21.011Z,5.97
2018-04-10T15:51:47.928Z,5.95
2018-04-10T15:54:14.558Z,6.57
2018-04-10T15:56:41.195Z,5.15
2018-04-10T15:59:07.815Z,5.40
2018-04-10T16:01:34.446Z,5.82
2018-04-10T16:04:01.103Z,4.50
2018-04-10T16:06:27.738Z,6.90
2018-04-10T16:08:54.386Z,5.22
2018-04-10T16:11:21.031Z,4.87
2018-04-10T16:13:47.792Z,4.80
2018-04-10T16:16:14.417Z,4.75
2018-04-10T16:18:41.054Z,5.37
2018-04-10T16:21:07.783Z,4.90
2018-04-10T16:23:34.423Z,6.12
2018-04-10T16:26:01.158Z,5.03
2018-04-10T16:28:27.804Z,8.50
2018-04-10T16:30:54.425Z,5.68
2018-04-10T16:33:21.079Z,5.35
2018-04-10T16:35:47.726Z,7.45
2018-04-10T16:38:14.386Z,5.18
2018-04-10T16:40:41.030Z,5.53
2018-04-10T16:43:07.663Z,5.72
2018-04-10T16:45:34.379Z,4.62
2018-04-10T16:48:01.148Z,6.80
2018-04-10T16:50:27.760Z,5.35
2018-04-10T16:52:54.425Z,4.90
2018-04-10T16:55:21.069Z,4.53
2018-04-10T16:57:47.691Z,5.15
2018-04-10T17:00:14.319Z,5.85
2018-04-10T17:02:40.963Z,4.40
2018-04-10T17:05:08.210Z,5.82
2018-04-10T17:07:34.839Z,5.00
2018-04-10T17:10:01.592Z,5.97
2018-04-10T17:12:28.229Z,6.65
2018-04-10T17:14:54.859Z,5.87
2018-04-10T17:17:21.500Z,5.87
2018-04-10T17:19:48.132Z,5.87
2018-04-10T17:22:14.768Z,7.10
2018-04-10T17:24:41.422Z,8.00
2018-04-10T17:27:08.060Z,6.28
2018-04-10T17:29:34.697Z,5.57
2018-04-10T17:32:01.322Z,5.70
2018-04-10T17:34:27.947Z,5.70
2018-04-10T17:36:54.627Z,20.20
2018-04-10T17:39:21.263Z,14.05
2018-04-10T17:41:47.994Z,6.93
2018-04-10T17:44:14.650Z,6.50
2018-04-10T17:46:41.270Z,7.18
2018-04-10T17:49:07.900Z,6.97
2018-04-10T17:51:34.559Z,6.55
2018-04-10T17:54:01.200Z,8.20
2018-04-10T17:56:27.823Z,6.75
2018-04-10T17:58:54.447Z,7.40
2018-04-10T18:01:21.093Z,6.35
2018-04-10T18:03:47.774Z,7.32
2018-04-10T18:06:14.489Z,7.03
2018-04-10T18:08:41.112Z,7.80
2018-04-10T18:11:07.733Z,7.05
2018-04-10T18:13:34.379Z,8.50
2018-04-10T18:16:01.047Z,8.95
2018-04-10T18:18:27.691Z,16.33
2018-04-10T18:20:54.317Z,17.27
2018-04-10T18:23:20.950Z,8.77
2018-04-10T18:25:47.700Z,9.98
2018-04-10T18:28:14.327Z,9.63
2018-04-10T18:30:40.982Z,9.30
2018-04-10T18:33:07.597Z,9.88
2018-04-10T18:35:34.268Z,9.40
2018-04-10T18:38:00.903Z,7.78
2018-04-10T18:40:27.518Z,9.40
2018-04-10T18:42:54.154Z,8.93
2018-04-10T18:45:20.774Z,9.32
2018-04-10T18:47:47.463Z,9.50
2018-04-10T18:50:14.204Z,9.90
2018-04-10T18:52:40.938Z,9.27
2018-04-10T18:55:07.569Z,8.95
2018-04-10T18:57:34.203Z,9.93
2018-04-10T19:00:00.839Z,9.95
2018-04-10T19:02:27.504Z,10.77
2018-04-10T19:04:54.143Z,11.15
2018-04-10T19:07:20.797Z,10.80
2018-04-10T19:09:47.517Z,10.40
2018-04-10T19:12:14.151Z,9.32
2018-04-10T19:14:40.783Z,9.80
2018-04-10T19:17:07.412Z,9.93
2018-04-10T19:19:34.063Z,10.73
2018-04-10T19:22:00.694Z,10.35
2018-04-10T19:24:27.319Z,11.55
2018-04-10T19:26:53.995Z,11.57
2018-04-10T19:29:20.635Z,12.82
2018-04-10T19:31:47.278Z,11.68
2018-04-10T19:34:13.921Z,12.90
2018-04-10T19:36:40.646Z,11.60
2018-04-10T19:39:07.387Z,12.73
2018-04-10T19:41:34.028Z,13.43
2018-04-10T19:44:00.698Z,12.88
2018-04-10T19:46:27.407Z,12.90
2018-04-10T19:48:54.146Z,14.00
2018-04-10T19:51:20.790Z,13.15
2018-04-10T19:53:47.422Z,13.88
2018-04-10T19:56:14.171Z,14.87
2018-04-10T19:58:40.912Z,16.75
2018-04-10T20:01:07.671Z,13.95
2018-04-10T20:03:34.323Z,13.45
2018-04-10T20:06:00.952Z,10.48
2018-04-10T20:08:27.601Z,9.25
2018-04-10T20:10:54.315Z,9.13
2018-04-10T20:13:20.940Z,7.15
2018-04-10T20:15:47.582Z,7.97
2018-04-10T20:18:14.207Z,5.87
2018-04-10T20:20:40.846Z,5.50
2018-04-10T20:23:07.508Z,4.90
2018-04-10T20:25:34.131Z,5.25
2018-04-10T20:28:00.766Z,5.90
2018-04-10T20:30:27.390Z,5.05
2018-04-10T20:32:54.027Z,4.95
2018-04-10T20:35:20.704Z,3.95
2018-04-10T20:37:47.434Z,4.12
2018-04-10T20:40:14.085Z,4.85
2018-04-10T20:42:40.712Z,4.82
2018-04-10T20:45:07.352Z,4.03
2018-04-10T20:47:33.967Z,4.12
2018-04-10T20:50:00.615Z,3.90
2018-04-10T20:52:27.253Z,4.32
2018-04-10T20:54:53.919Z,4.65
2018-04-10T20:57:20.560Z,4.30
2018-04-10T20:59:47.294Z,4.87
2018-04-10T21:02:13.915Z,3.95
2018-04-10T21:04:40.566Z,4.47
2018-04-10T21:07:07.198Z,4.70
2018-04-10T21:09:33.827Z,4.57
2018-04-10T21:12:00.468Z,4.72
2018-04-10T21:14:27.130Z,4.28
2018-04-10T21:16:53.758Z,4.60
2018-04-10T21:19:20.400Z,5.25
2018-04-10T21:21:47.023Z,5.00
2018-04-10T21:24:13.652Z,5.53
2018-04-10T21:26:40.294Z,4.03
2018-04-10T21:29:06.927Z,7.45
2018-04-10T21:31:33.569Z,11.18
2018-04-10T21:34:00.260Z,9.95
2018-04-10T21:36:26.901Z,15.07
2018-04-10T21:38:53.561Z,63.05
2018-04-10T21:41:20.200Z,20.48
2018-04-10T21:43:46.838Z,17.17
2018-04-10T21:46:13.501Z,33.58
2018-04-10T21:48:40.139Z,27.08
2018-04-10T21:51:06.792Z,32.70
2018-04-10T21:53:33.463Z,29.17
2018-04-10T21:56:00.102Z,30.95
2018-04-10T21:58:26.841Z,29.12
2018-04-10T22:00:53.480Z,28.55
2018-04-10T22:14:20.139Z,18.62
2018-04-10T22:16:46.836Z,17.23
2018-04-10T22:19:13.579Z,18.90
2018-04-10T22:21:40.231Z,20.73
2018-04-10T22:24:06.962Z,22.40
2018-04-10T22:26:33.599Z,23.05
2018-04-10T22:29:00.232Z,23.27
2018-04-10T22:31:26.874Z,20.73
2018-04-10T22:33:53.592Z,18.83
2018-04-10T22:36:20.248Z,18.12
2018-04-10T22:38:46.967Z,23.40
2018-04-10T22:41:13.595Z,21.75
2018-04-10T22:43:40.242Z,19.33
2018-04-10T22:46:06.877Z,16.35
2018-04-10T22:48:33.514Z,15.25
2018-04-10T22:51:00.148Z,15.88
2018-04-10T22:53:26.790Z,18.23
2018-04-10T22:55:53.420Z,20.23
2018-04-10T22:58:20.073Z,19.20
2018-04-10T23:00:46.703Z,20.23
2018-04-10T23:03:13.359Z,21.98
2018-04-10T23:05:39.994Z,24.15
2018-04-10T23:08:06.639Z,22.62
2018-04-10T23:10:33.295Z,19.58
2018-04-10T23:13:00.053Z,20.08
2018-04-10T23:15:26.712Z,15.55
2018-04-10T23:17:53.429Z,12.90
2018-04-10T23:20:20.159Z,15.88
2018-04-10T23:22:46.808Z,13.43
2018-04-10T23:25:13.460Z,16.12
2018-04-10T23:27:40.108Z,13.45
2018-04-10T23:30:06.844Z,13.95
2018-04-10T23:32:33.498Z,14.80
2018-04-10T23:35:00.140Z,14.50
2018-04-10T23:37:26.797Z,12.77
2018-04-10T23:39:53.436Z,12.43
2018-04-10T23:42:20.091Z,12.90
2018-04-10T23:44:46.715Z,11.90
2018-04-10T23:47:13.367Z,11.90
2018-04-10T23:49:40.062Z,13.00
2018-04-10T23:52:06.790Z,13.52
2018-04-10T23:54:33.443Z,15.95
2018-04-10T23:57:00.079Z,12.95
2018-04-10T23:59:26.727Z,14.87
